sensor_id;sensor_type;location;lat;lon;timestamp;temperature;humidity
3842;DHT22;1936;47.074;15.336;2022-08-25T00:00:50;16.30;99.90
3842;DHT22;1936;47.074;15.336;2022-08-25T00:02:55;16.40;99.90
3842;DHT22;1936;47.074;15.336;2022-08-25T00:04:59;16.40;99.90
3842;DHT22;1936;47.074;15.336;2022-08-25T00:07:05;16.50;99.90
3842;DHT22;1936;47.074;15.336;2022-08-25T00:09:10;16.60;99.90
3842;DHT22;1936;47.074;15.336;2022-08-25T00:11:20;16.60;99.90
3842;DHT22;1936;47.074;15.336;2022-08-25T00:13:25;16.60;99.90
3842;DHT22;1936;47.074;15.336;2022-08-25T00:15:31;16.60;99.90
3842;DHT22;1936;47.074;15.336;2022-08-25T00:17:35;16.70;99.90
3842;DHT22;1936;47.074;15.336;2022-08-25T00:19:39;16.70;99.90
3842;DHT22;1936;47.074;15.336;2022-08-25T00:21:43;16.70;99.90
3842;DHT22;1936;47.074;15.336;2022-08-25T00:23:48;16.70;99.90
3842;DHT22;1936;47.074;15.336;2022-08-25T00:25:52;16.70;99.90
3842;DHT22;1936;47.074;15.336;2022-08-25T00:27:56;16.80;99.90
3842;DHT22;1936;47.074;15.336;2022-08-25T00:30:00;16.80;99.90
3842;DHT22;1936;47.074;15.336;2022-08-25T00:32:06;16.80;99.90
3842;DHT22;1936;47.074;15.336;2022-08-25T00:34:14;16.90;99.90
3842;DHT22;1936;47.074;15.336;2022-08-25T00:38:23;16.80;99.90
3842;DHT22;1936;47.074;15.336;2022-08-25T00:40:28;16.90;99.90
3842;DHT22;1936;47.074;15.336;2022-08-25T00:42:31;17.00;99.90
3842;DHT22;1936;47.074;15.336;2022-08-25T00:44:35;17.00;99.90
3842;DHT22;1936;47.074;15.336;2022-08-25T00:46:44;17.00;99.90
3842;DHT22;1936;47.074;15.336;2022-08-25T00:48:52;16.90;99.90
3842;DHT22;1936;47.074;15.336;2022-08-25T00:50:59;16.90;99.90
3842;DHT22;1936;47.074;15.336;2022-08-25T00:53:06;17.00;99.90
3842;DHT22;1936;47.074;15.336;2022-08-25T00:55:13;17.00;99.90
3842;DHT22;1936;47.074;15.336;2022-08-25T00:57:24;17.00;99.90
3842;DHT22;1936;47.074;15.336;2022-08-25T00:59:36;16.90;99.90
3842;DHT22;1936;47.074;15.336;2022-08-25T01:01:40;16.90;99.90
3842;DHT22;1936;47.074;15.336;2022-08-25T01:03:44;17.00;99.90
3842;DHT22;1936;47.074;15.336;2022-08-25T01:05:50;17.00;99.90
3842;DHT22;1936;47.074;15.336;2022-08-25T01:07:56;17.00;99.90
3842;DHT22;1936;47.074;15.336;2022-08-25T01:10:01;17.10;99.90
3842;DHT22;1936;47.074;15.336;2022-08-25T01:12:07;17.00;99.90
3842;DHT22;1936;47.074;15.336;2022-08-25T01:14:14;17.10;99.90
3842;DHT22;1936;47.074;15.336;2022-08-25T01:16:18;17.10;99.90
3842;DHT22;1936;47.074;15.336;2022-08-25T01:18:22;17.00;99.90
3842;DHT22;1936;47.074;15.336;2022-08-25T01:22:34;17.00;99.90
3842;DHT22;1936;47.074;15.336;2022-08-25T01:24:43;17.00;99.90
3842;DHT22;1936;47.074;15.336;2022-08-25T01:26:48;16.90;99.90
3842;DHT22;1936;47.074;15.336;2022-08-25T01:28:52;16.80;99.90
3842;DHT22;1936;47.074;15.336;2022-08-25T01:31:13;16.80;99.90
3842;DHT22;1936;47.074;15.336;2022-08-25T01:33:26;16.80;99.90
3842;DHT22;1936;47.074;15.336;2022-08-25T01:35:30;16.80;99.90
3842;DHT22;1936;47.074;15.336;2022-08-25T01:37:39;16.80;99.90
3842;DHT22;1936;47.074;15.336;2022-08-25T01:39:43;16.80;99.90
3842;DHT22;1936;47.074;15.336;2022-08-25T01:42:07;16.80;99.90
3842;DHT22;1936;47.074;15.336;2022-08-25T01:44:13;16.70;99.90
3842;DHT22;1936;47.074;15.336;2022-08-25T01:46:17;16.70;99.90
3842;DHT22;1936;47.074;15.336;2022-08-25T01:48:21;16.70;99.90
3842;DHT22;1936;47.074;15.336;2022-08-25T01:50:26;16.70;99.90
3842;DHT22;1936;47.074;15.336;2022-08-25T01:52:33;16.60;99.90
3842;DHT22;1936;47.074;15.336;2022-08-25T01:54:41;16.60;99.90
3842;DHT22;1936;47.074;15.336;2022-08-25T01:56:45;16.50;99.90
3842;DHT22;1936;47.074;15.336;2022-08-25T01:58:49;16.50;99.90
3842;DHT22;1936;47.074;15.336;2022-08-25T02:00:55;16.50;99.90
3842;DHT22;1936;47.074;15.336;2022-08-25T02:02:58;16.50;99.90
3842;DHT22;1936;47.074;15.336;2022-08-25T02:05:03;16.50;99.90
3842;DHT22;1936;47.074;15.336;2022-08-25T02:07:09;16.40;99.90
3842;DHT22;1936;47.074;15.336;2022-08-25T02:09:15;16.40;99.90
3842;DHT22;1936;47.074;15.336;2022-08-25T02:11:21;16.30;99.90
3842;DHT22;1936;47.074;15.336;2022-08-25T02:13:26;16.30;99.90
3842;DHT22;1936;47.074;15.336;2022-08-25T02:15:32;16.30;99.90
3842;DHT22;1936;47.074;15.336;2022-08-25T02:17:37;16.20;99.90
3842;DHT22;1936;47.074;15.336;2022-08-25T02:19:40;16.20;99.90
3842;DHT22;1936;47.074;15.336;2022-08-25T02:21:47;16.20;99.90
3842;DHT22;1936;47.074;15.336;2022-08-25T02:23:51;16.20;99.90
3842;DHT22;1936;47.074;15.336;2022-08-25T02:25:55;16.30;99.90
3842;DHT22;1936;47.074;15.336;2022-08-25T02:28:02;16.20;99.90
3842;DHT22;1936;47.074;15.336;2022-08-25T02:30:09;16.20;99.90
3842;DHT22;1936;47.074;15.336;2022-08-25T02:34:18;16.30;99.90
3842;DHT22;1936;47.074;15.336;2022-08-25T02:36:22;16.30;99.90
3842;DHT22;1936;47.074;15.336;2022-08-25T02:38:27;16.20;99.90
3842;DHT22;1936;47.074;15.336;2022-08-25T02:40:31;16.10;99.90
3842;DHT22;1936;47.074;15.336;2022-08-25T02:42:35;16.40;99.90
3842;DHT22;1936;47.074;15.336;2022-08-25T02:44:45;16.50;99.90
3842;DHT22;1936;47.074;15.336;2022-08-25T02:46:49;16.50;99.90
3842;DHT22;1936;47.074;15.336;2022-08-25T02:48:53;16.40;99.90
3842;DHT22;1936;47.074;15.336;2022-08-25T02:50:59;16.30;99.90
3842;DHT22;1936;47.074;15.336;2022-08-25T02:53:03;16.30;99.90
3842;DHT22;1936;47.074;15.336;2022-08-25T02:55:10;16.30;99.90
3842;DHT22;1936;47.074;15.336;2022-08-25T02:57:15;16.20;99.90
3842;DHT22;1936;47.074;15.336;2022-08-25T02:59:19;16.30;99.90
3842;DHT22;1936;47.074;15.336;2022-08-25T03:01:25;16.30;99.90
3842;DHT22;1936;47.074;15.336;2022-08-25T03:03:30;16.30;99.90
3842;DHT22;1936;47.074;15.336;2022-08-25T03:05:40;16.30;99.90
3842;DHT22;1936;47.074;15.336;2022-08-25T03:07:47;16.40;99.90
3842;DHT22;1936;47.074;15.336;2022-08-25T03:09:55;16.50;99.90
3842;DHT22;1936;47.074;15.336;2022-08-25T03:11:59;16.50;99.90
3842;DHT22;1936;47.074;15.336;2022-08-25T03:14:03;16.60;99.90
3842;DHT22;1936;47.074;15.336;2022-08-25T03:16:08;16.60;99.90
3842;DHT22;1936;47.074;15.336;2022-08-25T03:18:17;16.60;99.90
3842;DHT22;1936;47.074;15.336;2022-08-25T03:20:21;16.70;99.90
3842;DHT22;1936;47.074;15.336;2022-08-25T03:22:25;16.70;99.90
3842;DHT22;1936;47.074;15.336;2022-08-25T03:24:29;16.80;99.90
3842;DHT22;1936;47.074;15.336;2022-08-25T03:26:33;16.80;99.90
3842;DHT22;1936;47.074;15.336;2022-08-25T03:28:56;16.80;99.90
3842;DHT22;1936;47.074;15.336;2022-08-25T03:31:01;16.90;99.90
3842;DHT22;1936;47.074;15.336;2022-08-25T03:33:07;16.90;99.90
3842;DHT22;1936;47.074;15.336;2022-08-25T03:35:13;16.80;99.90
3842;DHT22;1936;47.074;15.336;2022-08-25T03:37:17;16.90;99.90
3842;DHT22;1936;47.074;15.336;2022-08-25T03:39:22;16.90;99.90
3842;DHT22;1936;47.074;15.336;2022-08-25T03:41:27;16.90;99.90
3842;DHT22;1936;47.074;15.336;2022-08-25T03:45:40;16.90;99.90
3842;DHT22;1936;47.074;15.336;2022-08-25T03:47:45;16.80;99.90
3842;DHT22;1936;47.074;15.336;2022-08-25T03:49:50;16.70;99.90
3842;DHT22;1936;47.074;15.336;2022-08-25T03:51:55;16.80;99.90
3842;DHT22;1936;47.074;15.336;2022-08-25T03:54:02;16.70;99.90
3842;DHT22;1936;47.074;15.336;2022-08-25T03:56:06;16.70;99.90
3842;DHT22;1936;47.074;15.336;2022-08-25T03:58:10;16.80;99.90
3842;DHT22;1936;47.074;15.336;2022-08-25T04:00:14;16.80;99.90
3842;DHT22;1936;47.074;15.336;2022-08-25T04:02:19;16.70;99.90
3842;DHT22;1936;47.074;15.336;2022-08-25T04:04:23;16.60;99.90
3842;DHT22;1936;47.074;15.336;2022-08-25T04:06:27;16.70;99.90
3842;DHT22;1936;47.074;15.336;2022-08-25T04:08:33;16.70;99.90
3842;DHT22;1936;47.074;15.336;2022-08-25T04:10:37;16.70;99.90
3842;DHT22;1936;47.074;15.336;2022-08-25T04:12:41;16.70;99.90
3842;DHT22;1936;47.074;15.336;2022-08-25T04:14:48;16.80;99.90
3842;DHT22;1936;47.074;15.336;2022-08-25T04:16:52;16.70;99.90
3842;DHT22;1936;47.074;15.336;2022-08-25T04:18:59;16.80;99.90
3842;DHT22;1936;47.074;15.336;2022-08-25T04:23:09;16.80;99.90
3842;DHT22;1936;47.074;15.336;2022-08-25T04:25:15;16.80;99.90
3842;DHT22;1936;47.074;15.336;2022-08-25T04:27:18;16.70;99.90
3842;DHT22;1936;47.074;15.336;2022-08-25T04:29:24;16.80;99.90
3842;DHT22;1936;47.074;15.336;2022-08-25T04:31:31;16.70;99.90
3842;DHT22;1936;47.074;15.336;2022-08-25T04:33:37;16.80;99.90
3842;DHT22;1936;47.074;15.336;2022-08-25T04:35:46;16.90;99.90
3842;DHT22;1936;47.074;15.336;2022-08-25T04:37:50;16.90;99.90
3842;DHT22;1936;47.074;15.336;2022-08-25T04:39:55;16.90;99.90
3842;DHT22;1936;47.074;15.336;2022-08-25T04:42:00;17.10;99.90
3842;DHT22;1936;47.074;15.336;2022-08-25T04:44:05;17.10;99.90
3842;DHT22;1936;47.074;15.336;2022-08-25T04:46:11;17.20;99.90
3842;DHT22;1936;47.074;15.336;2022-08-25T04:48:21;17.30;99.90
3842;DHT22;1936;47.074;15.336;2022-08-25T04:50:26;17.40;99.90
3842;DHT22;1936;47.074;15.336;2022-08-25T04:52:31;17.50;99.90
3842;DHT22;1936;47.074;15.336;2022-08-25T04:54:35;17.50;99.90
3842;DHT22;1936;47.074;15.336;2022-08-25T04:56:41;17.60;99.90
3842;DHT22;1936;47.074;15.336;2022-08-25T04:58:47;17.60;99.90
3842;DHT22;1936;47.074;15.336;2022-08-25T05:00:51;17.60;99.90
3842;DHT22;1936;47.074;15.336;2022-08-25T05:02:55;17.70;99.90
3842;DHT22;1936;47.074;15.336;2022-08-25T05:04:59;17.70;99.90
3842;DHT22;1936;47.074;15.336;2022-08-25T05:07:08;17.70;99.90
3842;DHT22;1936;47.074;15.336;2022-08-25T05:09:12;17.70;99.90
3842;DHT22;1936;47.074;15.336;2022-08-25T05:11:21;17.70;99.90
3842;DHT22;1936;47.074;15.336;2022-08-25T05:13:27;17.80;99.90
3842;DHT22;1936;47.074;15.336;2022-08-25T05:15:33;17.90;99.90
3842;DHT22;1936;47.074;15.336;2022-08-25T05:17:58;18.00;99.90
3842;DHT22;1936;47.074;15.336;2022-08-25T05:20:02;18.00;99.90
3842;DHT22;1936;47.074;15.336;2022-08-25T05:22:07;18.00;99.90
3842;DHT22;1936;47.074;15.336;2022-08-25T05:24:11;18.00;99.90
3842;DHT22;1936;47.074;15.336;2022-08-25T05:26:17;18.10;99.90
3842;DHT22;1936;47.074;15.336;2022-08-25T05:28:23;18.20;99.90
3842;DHT22;1936;47.074;15.336;2022-08-25T05:30:30;18.30;99.90
3842;DHT22;1936;47.074;15.336;2022-08-25T05:34:41;18.40;99.90
3842;DHT22;1936;47.074;15.336;2022-08-25T05:36:45;18.60;99.90
3842;DHT22;1936;47.074;15.336;2022-08-25T05:38:48;18.80;99.90
3842;DHT22;1936;47.074;15.336;2022-08-25T05:40:55;18.80;99.90
3842;DHT22;1936;47.074;15.336;2022-08-25T05:42:59;18.90;99.90
3842;DHT22;1936;47.074;15.336;2022-08-25T05:45:04;18.90;99.90
3842;DHT22;1936;47.074;15.336;2022-08-25T05:47:22;18.90;99.90
3842;DHT22;1936;47.074;15.336;2022-08-25T05:49:27;19.10;99.90
3842;DHT22;1936;47.074;15.336;2022-08-25T05:51:33;19.20;99.90
3842;DHT22;1936;47.074;15.336;2022-08-25T05:53:38;19.60;99.90
3842;DHT22;1936;47.074;15.336;2022-08-25T05:55:44;19.60;99.90
3842;DHT22;1936;47.074;15.336;2022-08-25T05:57:48;19.70;99.90
3842;DHT22;1936;47.074;15.336;2022-08-25T05:59:52;19.80;99.90
3842;DHT22;1936;47.074;15.336;2022-08-25T06:01:56;19.90;99.90
3842;DHT22;1936;47.074;15.336;2022-08-25T06:04:18;20.10;99.90
3842;DHT22;1936;47.074;15.336;2022-08-25T06:08:29;20.90;99.90
3842;DHT22;1936;47.074;15.336;2022-08-25T06:12:42;21.90;99.90
3842;DHT22;1936;47.074;15.336;2022-08-25T06:14:47;22.30;99.90
3842;DHT22;1936;47.074;15.336;2022-08-25T06:16:51;22.60;99.90
3842;DHT22;1936;47.074;15.336;2022-08-25T06:21:08;23.00;99.90
3842;DHT22;1936;47.074;15.336;2022-08-25T06:23:13;22.90;99.90
3842;DHT22;1936;47.074;15.336;2022-08-25T06:25:21;22.90;99.90
3842;DHT22;1936;47.074;15.336;2022-08-25T06:27:26;22.80;99.90
3842;DHT22;1936;47.074;15.336;2022-08-25T06:33:39;22.60;99.90
3842;DHT22;1936;47.074;15.336;2022-08-25T06:35:43;22.60;99.90
3842;DHT22;1936;47.074;15.336;2022-08-25T06:37:48;22.90;99.90
3842;DHT22;1936;47.074;15.336;2022-08-25T06:39:53;22.80;99.90
3842;DHT22;1936;47.074;15.336;2022-08-25T06:41:59;22.50;99.90
3842;DHT22;1936;47.074;15.336;2022-08-25T06:44:03;22.70;99.90
3842;DHT22;1936;47.074;15.336;2022-08-25T06:46:09;22.80;99.90
3842;DHT22;1936;47.074;15.336;2022-08-25T06:48:16;22.80;99.90
3842;DHT22;1936;47.074;15.336;2022-08-25T06:50:21;22.70;99.90
3842;DHT22;1936;47.074;15.336;2022-08-25T06:52:28;23.00;99.90
3842;DHT22;1936;47.074;15.336;2022-08-25T06:54:32;23.20;99.90
3842;DHT22;1936;47.074;15.336;2022-08-25T06:56:39;23.50;99.90
3842;DHT22;1936;47.074;15.336;2022-08-25T06:58:43;23.80;99.90
3842;DHT22;1936;47.074;15.336;2022-08-25T07:00:49;23.90;99.90
3842;DHT22;1936;47.074;15.336;2022-08-25T07:02:53;23.80;99.90
3842;DHT22;1936;47.074;15.336;2022-08-25T07:04:58;24.00;99.90
3842;DHT22;1936;47.074;15.336;2022-08-25T07:07:02;24.10;99.90
3842;DHT22;1936;47.074;15.336;2022-08-25T07:11:12;24.10;99.90
3842;DHT22;1936;47.074;15.336;2022-08-25T07:13:19;24.10;99.90
3842;DHT22;1936;47.074;15.336;2022-08-25T07:15:24;23.90;99.90
3842;DHT22;1936;47.074;15.336;2022-08-25T07:17:31;23.90;99.90
3842;DHT22;1936;47.074;15.336;2022-08-25T07:19:36;24.00;99.90
3842;DHT22;1936;47.074;15.336;2022-08-25T07:21:42;24.30;99.90
3842;DHT22;1936;47.074;15.336;2022-08-25T07:23:50;24.40;99.90
3842;DHT22;1936;47.074;15.336;2022-08-25T07:25:54;24.40;99.90
3842;DHT22;1936;47.074;15.336;2022-08-25T07:30:08;23.70;99.90
3842;DHT22;1936;47.074;15.336;2022-08-25T07:32:12;23.60;99.90
3842;DHT22;1936;47.074;15.336;2022-08-25T07:36:40;23.30;99.90
3842;DHT22;1936;47.074;15.336;2022-08-25T07:38:43;23.50;99.90
3842;DHT22;1936;47.074;15.336;2022-08-25T07:40:47;24.00;99.90
3842;DHT22;1936;47.074;15.336;2022-08-25T07:42:59;24.00;99.90
3842;DHT22;1936;47.074;15.336;2022-08-25T07:45:11;24.40;99.90
3842;DHT22;1936;47.074;15.336;2022-08-25T07:47:18;24.50;99.90
3842;DHT22;1936;47.074;15.336;2022-08-25T07:49:25;24.50;99.90
3842;DHT22;1936;47.074;15.336;2022-08-25T07:51:37;24.50;99.90
3842;DHT22;1936;47.074;15.336;2022-08-25T07:54:00;24.30;99.90
3842;DHT22;1936;47.074;15.336;2022-08-25T07:58:13;23.80;99.90
3842;DHT22;1936;47.074;15.336;2022-08-25T08:00:20;23.50;99.90
3842;DHT22;1936;47.074;15.336;2022-08-25T08:02:26;23.50;99.90
3842;DHT22;1936;47.074;15.336;2022-08-25T08:04:31;23.70;99.90
3842;DHT22;1936;47.074;15.336;2022-08-25T08:06:42;23.70;99.90
3842;DHT22;1936;47.074;15.336;2022-08-25T08:08:48;23.60;99.90
3842;DHT22;1936;47.074;15.336;2022-08-25T08:10:59;23.60;99.90
3842;DHT22;1936;47.074;15.336;2022-08-25T08:13:06;23.70;99.90
3842;DHT22;1936;47.074;15.336;2022-08-25T08:15:11;23.50;99.90
3842;DHT22;1936;47.074;15.336;2022-08-25T08:17:20;23.40;99.90
3842;DHT22;1936;47.074;15.336;2022-08-25T08:19:23;23.40;99.90
3842;DHT22;1936;47.074;15.336;2022-08-25T08:21:29;23.30;99.90
3842;DHT22;1936;47.074;15.336;2022-08-25T08:23:33;23.50;99.90
3842;DHT22;1936;47.074;15.336;2022-08-25T08:25:37;23.50;99.90
3842;DHT22;1936;47.074;15.336;2022-08-25T08:27:41;23.40;99.90
3842;DHT22;1936;47.074;15.336;2022-08-25T08:29:46;23.20;99.90
3842;DHT22;1936;47.074;15.336;2022-08-25T08:31:50;23.20;99.90
3842;DHT22;1936;47.074;15.336;2022-08-25T08:33:56;23.10;99.90
3842;DHT22;1936;47.074;15.336;2022-08-25T08:36:01;23.00;99.90
3842;DHT22;1936;47.074;15.336;2022-08-25T08:38:08;23.00;99.90
3842;DHT22;1936;47.074;15.336;2022-08-25T08:40:20;22.80;99.90
3842;DHT22;1936;47.074;15.336;2022-08-25T08:42:40;22.60;99.90
3842;DHT22;1936;47.074;15.336;2022-08-25T08:49:18;22.70;99.90
3842;DHT22;1936;47.074;15.336;2022-08-25T08:51:31;22.60;99.90
3842;DHT22;1936;47.074;15.336;2022-08-25T08:53:43;22.70;99.90
3842;DHT22;1936;47.074;15.336;2022-08-25T08:57:56;22.80;99.90
3842;DHT22;1936;47.074;15.336;2022-08-25T09:00:01;22.80;99.90
3842;DHT22;1936;47.074;15.336;2022-08-25T09:02:14;22.90;99.90
3842;DHT22;1936;47.074;15.336;2022-08-25T09:04:44;23.00;99.90
3842;DHT22;1936;47.074;15.336;2022-08-25T09:06:49;23.10;99.90
3842;DHT22;1936;47.074;15.336;2022-08-25T09:08:56;22.80;99.90
3842;DHT22;1936;47.074;15.336;2022-08-25T09:11:07;22.80;99.90
3842;DHT22;1936;47.074;15.336;2022-08-25T09:15:35;23.00;99.90
3842;DHT22;1936;47.074;15.336;2022-08-25T09:18:05;23.10;99.90
3842;DHT22;1936;47.074;15.336;2022-08-25T09:20:36;23.10;99.90
3842;DHT22;1936;47.074;15.336;2022-08-25T09:22:51;23.20;99.90
3842;DHT22;1936;47.074;15.336;2022-08-25T09:25:05;23.60;99.90
3842;DHT22;1936;47.074;15.336;2022-08-25T09:27:21;23.70;99.90
3842;DHT22;1936;47.074;15.336;2022-08-25T09:29:33;23.80;99.90
3842;DHT22;1936;47.074;15.336;2022-08-25T09:31:41;23.90;99.90
3842;DHT22;1936;47.074;15.336;2022-08-25T09:35:55;23.60;99.90
3842;DHT22;1936;47.074;15.336;2022-08-25T09:38:08;23.80;99.90
3842;DHT22;1936;47.074;15.336;2022-08-25T09:40:13;24.00;99.90
3842;DHT22;1936;47.074;15.336;2022-08-25T09:42:19;24.20;99.90
3842;DHT22;1936;47.074;15.336;2022-08-25T09:44:30;24.30;99.90
3842;DHT22;1936;47.074;15.336;2022-08-25T09:46:35;24.50;99.90
3842;DHT22;1936;47.074;15.336;2022-08-25T09:48:47;24.60;99.90
3842;DHT22;1936;47.074;15.336;2022-08-25T09:51:01;24.70;99.90
3842;DHT22;1936;47.074;15.336;2022-08-25T09:55:28;24.90;99.90
3842;DHT22;1936;47.074;15.336;2022-08-25T09:59:39;25.30;99.90
3842;DHT22;1936;47.074;15.336;2022-08-25T10:04:05;25.70;99.90
3842;DHT22;1936;47.074;15.336;2022-08-25T10:06:21;26.00;99.90
3842;DHT22;1936;47.074;15.336;2022-08-25T10:08:37;26.30;99.90
3842;DHT22;1936;47.074;15.336;2022-08-25T10:10:44;25.90;99.90
3842;DHT22;1936;47.074;15.336;2022-08-25T10:12:50;25.80;99.90
3842;DHT22;1936;47.074;15.336;2022-08-25T10:14:56;25.80;99.90
3842;DHT22;1936;47.074;15.336;2022-08-25T10:17:17;26.10;99.90
3842;DHT22;1936;47.074;15.336;2022-08-25T10:19:29;26.10;99.90
3842;DHT22;1936;47.074;15.336;2022-08-25T10:21:39;25.80;99.90
3842;DHT22;1936;47.074;15.336;2022-08-25T10:25:50;25.90;99.90
3842;DHT22;1936;47.074;15.336;2022-08-25T10:28:10;25.90;99.90
3842;DHT22;1936;47.074;15.336;2022-08-25T10:30:32;26.10;99.90
3842;DHT22;1936;47.074;15.336;2022-08-25T10:32:56;26.50;99.90
3842;DHT22;1936;47.074;15.336;2022-08-25T10:35:19;26.10;99.90
3842;DHT22;1936;47.074;15.336;2022-08-25T10:37:36;26.10;99.90
3842;DHT22;1936;47.074;15.336;2022-08-25T10:46:36;26.30;99.90
3842;DHT22;1936;47.074;15.336;2022-08-25T10:48:51;26.30;99.90
3842;DHT22;1936;47.074;15.336;2022-08-25T10:51:05;26.30;99.90
3842;DHT22;1936;47.074;15.336;2022-08-25T10:53:38;26.30;99.90
3842;DHT22;1936;47.074;15.336;2022-08-25T10:57:56;26.30;99.90
3842;DHT22;1936;47.074;15.336;2022-08-25T11:00:06;26.30;99.90
3842;DHT22;1936;47.074;15.336;2022-08-25T11:05:09;26.00;99.90
3842;DHT22;1936;47.074;15.336;2022-08-25T11:07:22;26.00;99.90
3842;DHT22;1936;47.074;15.336;2022-08-25T11:09:32;25.90;99.90
3842;DHT22;1936;47.074;15.336;2022-08-25T11:11:48;25.70;99.90
3842;DHT22;1936;47.074;15.336;2022-08-25T11:13:59;25.70;99.90
3842;DHT22;1936;47.074;15.336;2022-08-25T11:16:13;25.70;99.90
3842;DHT22;1936;47.074;15.336;2022-08-25T11:18:20;26.00;99.90
3842;DHT22;1936;47.074;15.336;2022-08-25T11:20:32;25.90;99.90
3842;DHT22;1936;47.074;15.336;2022-08-25T11:22:43;25.90;99.90
3842;DHT22;1936;47.074;15.336;2022-08-25T11:25:09;26.20;99.90
3842;DHT22;1936;47.074;15.336;2022-08-25T11:27:21;26.20;99.90
3842;DHT22;1936;47.074;15.336;2022-08-25T11:29:30;26.90;99.90
3842;DHT22;1936;47.074;15.336;2022-08-25T11:33:55;28.00;99.90
3842;DHT22;1936;47.074;15.336;2022-08-25T11:38:24;29.80;98.10
3842;DHT22;1936;47.074;15.336;2022-08-25T11:40:51;31.20;95.10
3842;DHT22;1936;47.074;15.336;2022-08-25T11:43:12;31.70;97.40
3842;DHT22;1936;47.074;15.336;2022-08-25T11:47:50;32.50;89.90
3842;DHT22;1936;47.074;15.336;2022-08-25T11:50:00;33.20;89.60
3842;DHT22;1936;47.074;15.336;2022-08-25T11:52:40;33.00;84.40
3842;DHT22;1936;47.074;15.336;2022-08-25T11:59:09;33.90;71.50
3842;DHT22;1936;47.074;15.336;2022-08-25T12:06:29;33.90;74.00
3842;DHT22;1936;47.074;15.336;2022-08-25T12:09:17;34.10;74.80
3842;DHT22;1936;47.074;15.336;2022-08-25T12:11:44;34.40;71.50
3842;DHT22;1936;47.074;15.336;2022-08-25T12:21:13;33.90;73.30
3842;DHT22;1936;47.074;15.336;2022-08-25T12:58:49;33.80;61.50
3842;DHT22;1936;47.074;15.336;2022-08-25T13:01:13;33.20;62.10
3842;DHT22;1936;47.074;15.336;2022-08-25T13:03:54;32.50;66.70
3842;DHT22;1936;47.074;15.336;2022-08-25T13:09:06;32.40;62.00
3842;DHT22;1936;47.074;15.336;2022-08-25T13:11:17;31.70;66.10
3842;DHT22;1936;47.074;15.336;2022-08-25T13:13:37;31.70;70.80
3842;DHT22;1936;47.074;15.336;2022-08-25T13:15:43;31.20;69.60
3842;DHT22;1936;47.074;15.336;2022-08-25T13:18:12;30.70;70.40
3842;DHT22;1936;47.074;15.336;2022-08-25T13:20:26;30.30;78.10
3842;DHT22;1936;47.074;15.336;2022-08-25T13:22:33;31.00;76.10
3842;DHT22;1936;47.074;15.336;2022-08-25T13:24:41;31.00;71.30
3842;DHT22;1936;47.074;15.336;2022-08-25T13:26:47;30.70;68.60
3842;DHT22;1936;47.074;15.336;2022-08-25T13:29:00;30.10;71.50
3842;DHT22;1936;47.074;15.336;2022-08-25T13:31:16;30.60;72.00
3842;DHT22;1936;47.074;15.336;2022-08-25T13:33:22;30.80;74.40
3842;DHT22;1936;47.074;15.336;2022-08-25T13:35:30;30.60;68.70
3842;DHT22;1936;47.074;15.336;2022-08-25T13:37:34;29.90;72.40
3842;DHT22;1936;47.074;15.336;2022-08-25T13:39:39;29.60;72.30
3842;DHT22;1936;47.074;15.336;2022-08-25T13:42:00;29.30;79.40
3842;DHT22;1936;47.074;15.336;2022-08-25T13:44:05;29.90;81.20
3842;DHT22;1936;47.074;15.336;2022-08-25T13:46:18;30.00;75.20
3842;DHT22;1936;47.074;15.336;2022-08-25T13:48:34;30.00;74.90
3842;DHT22;1936;47.074;15.336;2022-08-25T13:50:40;29.90;72.60
3842;DHT22;1936;47.074;15.336;2022-08-25T13:52:54;30.20;82.10
3842;DHT22;1936;47.074;15.336;2022-08-25T13:55:00;30.50;75.40
3842;DHT22;1936;47.074;15.336;2022-08-25T13:57:11;30.80;75.00
3842;DHT22;1936;47.074;15.336;2022-08-25T13:59:22;30.80;71.60
3842;DHT22;1936;47.074;15.336;2022-08-25T14:01:30;30.70;74.10
3842;DHT22;1936;47.074;15.336;2022-08-25T14:03:54;30.20;75.80
3842;DHT22;1936;47.074;15.336;2022-08-25T14:06:17;30.00;75.80
3842;DHT22;1936;47.074;15.336;2022-08-25T14:08:31;30.10;78.30
3842;DHT22;1936;47.074;15.336;2022-08-25T14:10:39;29.90;75.90
3842;DHT22;1936;47.074;15.336;2022-08-25T14:12:45;29.90;75.00
3842;DHT22;1936;47.074;15.336;2022-08-25T14:15:00;29.80;77.60
3842;DHT22;1936;47.074;15.336;2022-08-25T14:17:06;29.60;73.30
3842;DHT22;1936;47.074;15.336;2022-08-25T14:19:32;29.10;75.80
3842;DHT22;1936;47.074;15.336;2022-08-25T14:21:36;29.00;79.30
3842;DHT22;1936;47.074;15.336;2022-08-25T14:23:43;29.40;79.50
3842;DHT22;1936;47.074;15.336;2022-08-25T14:25:49;29.40;74.60
3842;DHT22;1936;47.074;15.336;2022-08-25T14:27:56;29.40;75.00
3842;DHT22;1936;47.074;15.336;2022-08-25T14:30:10;29.20;76.00
3842;DHT22;1936;47.074;15.336;2022-08-25T14:32:15;28.70;77.80
3842;DHT22;1936;47.074;15.336;2022-08-25T14:34:22;28.80;76.00
3842;DHT22;1936;47.074;15.336;2022-08-25T14:36:32;28.80;87.10
3842;DHT22;1936;47.074;15.336;2022-08-25T14:38:38;28.90;79.50
3842;DHT22;1936;47.074;15.336;2022-08-25T14:40:45;28.80;74.10
3842;DHT22;1936;47.074;15.336;2022-08-25T14:42:54;28.80;75.00
3842;DHT22;1936;47.074;15.336;2022-08-25T14:44:59;28.70;78.80
3842;DHT22;1936;47.074;15.336;2022-08-25T14:47:05;28.70;84.10
3842;DHT22;1936;47.074;15.336;2022-08-25T14:49:14;28.50;79.90
3842;DHT22;1936;47.074;15.336;2022-08-25T14:51:26;28.70;88.30
3842;DHT22;1936;47.074;15.336;2022-08-25T14:53:35;28.70;78.90
3842;DHT22;1936;47.074;15.336;2022-08-25T14:55:40;28.60;86.50
3842;DHT22;1936;47.074;15.336;2022-08-25T14:57:44;28.50;83.30
3842;DHT22;1936;47.074;15.336;2022-08-25T14:59:51;28.40;85.80
3842;DHT22;1936;47.074;15.336;2022-08-25T15:01:56;28.30;84.10
3842;DHT22;1936;47.074;15.336;2022-08-25T15:04:05;28.10;82.10
3842;DHT22;1936;47.074;15.336;2022-08-25T15:06:11;27.90;82.90
3842;DHT22;1936;47.074;15.336;2022-08-25T15:08:16;27.80;82.80
3842;DHT22;1936;47.074;15.336;2022-08-25T15:10:40;27.90;82.40
3842;DHT22;1936;47.074;15.336;2022-08-25T15:12:44;27.80;82.40
3842;DHT22;1936;47.074;15.336;2022-08-25T15:14:55;27.90;82.70
3842;DHT22;1936;47.074;15.336;2022-08-25T15:17:00;27.80;83.30
3842;DHT22;1936;47.074;15.336;2022-08-25T15:19:06;27.90;82.60
3842;DHT22;1936;47.074;15.336;2022-08-25T15:21:11;28.00;84.30
3842;DHT22;1936;47.074;15.336;2022-08-25T15:23:16;28.00;83.60
3842;DHT22;1936;47.074;15.336;2022-08-25T15:25:20;27.90;81.60
3842;DHT22;1936;47.074;15.336;2022-08-25T15:27:27;27.90;81.40
3842;DHT22;1936;47.074;15.336;2022-08-25T15:29:33;27.80;85.20
3842;DHT22;1936;47.074;15.336;2022-08-25T15:31:39;27.70;86.30
3842;DHT22;1936;47.074;15.336;2022-08-25T15:33:43;27.60;84.60
3842;DHT22;1936;47.074;15.336;2022-08-25T15:35:48;27.60;84.30
3842;DHT22;1936;47.074;15.336;2022-08-25T15:38:56;27.50;88.50
3842;DHT22;1936;47.074;15.336;2022-08-25T15:40:46;27.60;88.30
3842;DHT22;1936;47.074;15.336;2022-08-25T15:42:52;27.50;87.20
3842;DHT22;1936;47.074;15.336;2022-08-25T15:44:57;27.50;91.30
3842;DHT22;1936;47.074;15.336;2022-08-25T15:47:06;27.60;86.20
3842;DHT22;1936;47.074;15.336;2022-08-25T15:49:14;27.60;88.10